sensor_id;sensor_type;location;lat;lon;timestamp;P1;durP1;ratioP1;P2;durP2;ratioP2
43670;SDS011;29267;50.906;7.248;2023-05-10T00:02:02;8.77;;;6.03;;
43670;SDS011;29267;50.906;7.248;2023-05-10T00:04:27;7.88;;;5.82;;
43670;SDS011;29267;50.906;7.248;2023-05-10T00:06:53;8.75;;;6.57;;
43670;SDS011;29267;50.906;7.248;2023-05-10T00:09:19;8.10;;;5.60;;
43670;SDS011;29267;50.906;7.248;2023-05-10T00:11:45;7.90;;;5.82;;
43670;SDS011;29267;50.906;7.248;2023-05-10T00:14:11;10.02;;;7.13;;
43670;SDS011;29267;50.906;7.248;2023-05-10T00:16:36;8.65;;;5.97;;
43670;SDS011;29267;50.906;7.248;2023-05-10T00:19:02;9.00;;;6.75;;
43670;SDS011;29267;50.906;7.248;2023-05-10T00:21:27;8.82;;;6.22;;
43670;SDS011;29267;50.906;7.248;2023-05-10T00:23:53;10.93;;;7.57;;
43670;SDS011;29267;50.906;7.248;2023-05-10T00:26:19;9.63;;;6.78;;
43670;SDS011;29267;50.906;7.248;2023-05-10T00:28:45;10.35;;;6.90;;
43670;SDS011;29267;50.906;7.248;2023-05-10T00:31:10;12.98;;;8.00;;
43670;SDS011;29267;50.906;7.248;2023-05-10T00:33:36;10.90;;;7.25;;
43670;SDS011;29267;50.906;7.248;2023-05-10T00:36:02;11.82;;;7.85;;
43670;SDS011;29267;50.906;7.248;2023-05-10T00:38:28;11.43;;;8.10;;
43670;SDS011;29267;50.906;7.248;2023-05-10T00:40:53;10.00;;;7.65;;
43670;SDS011;29267;50.906;7.248;2023-05-10T00:43:19;14.98;;;8.68;;
43670;SDS011;29267;50.906;7.248;2023-05-10T00:45:44;14.23;;;8.98;;
43670;SDS011;29267;50.906;7.248;2023-05-10T00:48:10;11.30;;;8.07;;
43670;SDS011;29267;50.906;7.248;2023-05-10T00:50:36;12.55;;;8.02;;
43670;SDS011;29267;50.906;7.248;2023-05-10T00:53:02;16.17;;;8.98;;
43670;SDS011;29267;50.906;7.248;2023-05-10T00:55:28;18.17;;;9.93;;
43670;SDS011;29267;50.906;7.248;2023-05-10T00:57:53;15.02;;;8.88;;
43670;SDS011;29267;50.906;7.248;2023-05-10T01:00:20;15.80;;;9.43;;
43670;SDS011;29267;50.906;7.248;2023-05-10T01:02:45;13.50;;;8.68;;
43670;SDS011;29267;50.906;7.248;2023-05-10T01:05:11;15.68;;;9.30;;
43670;SDS011;29267;50.906;7.248;2023-05-10T01:07:38;18.35;;;10.38;;
43670;SDS011;29267;50.906;7.248;2023-05-10T01:10:04;14.73;;;9.05;;
43670;SDS011;29267;50.906;7.248;2023-05-10T01:12:31;18.20;;;9.45;;
43670;SDS011;29267;50.906;7.248;2023-05-10T01:14:57;15.82;;;8.77;;
43670;SDS011;29267;50.906;7.248;2023-05-10T01:17:24;16.92;;;10.75;;
43670;SDS011;29267;50.906;7.248;2023-05-10T01:19:51;18.42;;;11.15;;
43670;SDS011;29267;50.906;7.248;2023-05-10T01:36:19;19.77;;;11.05;;
43670;SDS011;29267;50.906;7.248;2023-05-10T01:41:54;21.83;;;13.20;;
43670;SDS011;29267;50.906;7.248;2023-05-10T01:44:28;28.63;;;14.82;;
43670;SDS011;29267;50.906;7.248;2023-05-10T01:47:10;26.15;;;13.68;;
43670;SDS011;29267;50.906;7.248;2023-05-10T01:49:39;24.95;;;13.38;;
43670;SDS011;29267;50.906;7.248;2023-05-10T01:52:12;22.58;;;13.02;;
43670;SDS011;29267;50.906;7.248;2023-05-10T01:54:43;27.75;;;14.65;;
43670;SDS011;29267;50.906;7.248;2023-05-10T01:57:14;31.08;;;15.65;;
43670;SDS011;29267;50.906;7.248;2023-05-10T01:59:43;29.90;;;14.90;;
43670;SDS011;29267;50.906;7.248;2023-05-10T02:02:11;26.35;;;13.93;;
43670;SDS011;29267;50.906;7.248;2023-05-10T02:04:39;30.73;;;14.48;;
43670;SDS011;29267;50.906;7.248;2023-05-10T02:07:07;26.08;;;14.65;;
43670;SDS011;29267;50.906;7.248;2023-05-10T02:09:34;32.25;;;15.55;;
43670;SDS011;29267;50.906;7.248;2023-05-10T02:12:01;27.55;;;13.75;;
43670;SDS011;29267;50.906;7.248;2023-05-10T02:14:30;28.52;;;14.43;;
43670;SDS011;29267;50.906;7.248;2023-05-10T02:16:59;29.13;;;15.43;;
43670;SDS011;29267;50.906;7.248;2023-05-10T02:19:26;27.38;;;14.18;;
43670;SDS011;29267;50.906;7.248;2023-05-10T02:21:53;27.88;;;13.27;;
43670;SDS011;29267;50.906;7.248;2023-05-10T02:24:21;23.13;;;12.70;;
43670;SDS011;29267;50.906;7.248;2023-05-10T02:26:48;22.70;;;11.80;;
43670;SDS011;29267;50.906;7.248;2023-05-10T02:29:16;22.02;;;13.52;;
43670;SDS011;29267;50.906;7.248;2023-05-10T02:31:42;24.48;;;12.90;;
43670;SDS011;29267;50.906;7.248;2023-05-10T02:34:08;20.52;;;11.55;;
43670;SDS011;29267;50.906;7.248;2023-05-10T02:36:36;21.60;;;11.63;;
43670;SDS011;29267;50.906;7.248;2023-05-10T02:39:04;22.77;;;12.10;;
43670;SDS011;29267;50.906;7.248;2023-05-10T02:41:34;20.48;;;11.65;;
43670;SDS011;29267;50.906;7.248;2023-05-10T02:44:01;19.02;;;11.73;;
43670;SDS011;29267;50.906;7.248;2023-05-10T02:46:28;23.23;;;12.10;;
43670;SDS011;29267;50.906;7.248;2023-05-10T02:48:54;24.42;;;13.75;;
43670;SDS011;29267;50.906;7.248;2023-05-10T02:51:20;22.48;;;11.63;;
43670;SDS011;29267;50.906;7.248;2023-05-10T02:53:49;19.77;;;11.63;;
43670;SDS011;29267;50.906;7.248;2023-05-10T02:56:23;20.48;;;11.55;;
43670;SDS011;29267;50.906;7.248;2023-05-10T02:58:56;17.50;;;9.02;;
43670;SDS011;29267;50.906;7.248;2023-05-10T03:01:22;13.60;;;8.15;;
43670;SDS011;29267;50.906;7.248;2023-05-10T03:03:47;11.20;;;6.30;;
43670;SDS011;29267;50.906;7.248;2023-05-10T03:06:13;9.50;;;5.78;;
43670;SDS011;29267;50.906;7.248;2023-05-10T03:08:39;11.00;;;5.15;;
43670;SDS011;29267;50.906;7.248;2023-05-10T03:13:51;7.32;;;4.47;;
43670;SDS011;29267;50.906;7.248;2023-05-10T03:16:42;7.82;;;4.93;;
43670;SDS011;29267;50.906;7.248;2023-05-10T03:19:22;7.82;;;4.85;;
43670;SDS011;29267;50.906;7.248;2023-05-10T03:21:52;9.90;;;5.50;;
43670;SDS011;29267;50.906;7.248;2023-05-10T03:24:22;10.55;;;5.82;;
43670;SDS011;29267;50.906;7.248;2023-05-10T03:26:51;11.20;;;6.90;;
43670;SDS011;29267;50.906;7.248;2023-05-10T03:29:20;13.48;;;7.50;;
43670;SDS011;29267;50.906;7.248;2023-05-10T03:31:47;15.50;;;7.75;;
43670;SDS011;29267;50.906;7.248;2023-05-10T03:34:13;12.02;;;7.45;;
43670;SDS011;29267;50.906;7.248;2023-05-10T03:36:39;10.20;;;7.32;;
43670;SDS011;29267;50.906;7.248;2023-05-10T03:39:04;14.57;;;7.93;;
43670;SDS011;29267;50.906;7.248;2023-05-10T03:41:30;14.90;;;9.35;;
43670;SDS011;29267;50.906;7.248;2023-05-10T03:43:55;15.27;;;7.82;;
43670;SDS011;29267;50.906;7.248;2023-05-10T03:46:21;15.98;;;9.32;;
43670;SDS011;29267;50.906;7.248;2023-05-10T03:48:46;17.05;;;9.65;;
43670;SDS011;29267;50.906;7.248;2023-05-10T03:51:12;14.43;;;8.80;;
43670;SDS011;29267;50.906;7.248;2023-05-10T03:53:37;14.15;;;9.60;;
43670;SDS011;29267;50.906;7.248;2023-05-10T03:56:03;14.50;;;9.32;;
43670;SDS011;29267;50.906;7.248;2023-05-10T03:58:29;16.33;;;9.13;;
43670;SDS011;29267;50.906;7.248;2023-05-10T04:00:54;14.55;;;8.98;;
43670;SDS011;29267;50.906;7.248;2023-05-10T04:03:20;14.00;;;8.98;;
43670;SDS011;29267;50.906;7.248;2023-05-10T04:05:45;13.23;;;8.80;;
43670;SDS011;29267;50.906;7.248;2023-05-10T04:08:11;12.07;;;7.63;;
43670;SDS011;29267;50.906;7.248;2023-05-10T04:10:36;11.13;;;7.50;;
43670;SDS011;29267;50.906;7.248;2023-05-10T04:13:02;13.93;;;7.57;;
43670;SDS011;29267;50.906;7.248;2023-05-10T04:15:28;10.32;;;7.60;;
43670;SDS011;29267;50.906;7.248;2023-05-10T04:17:53;12.93;;;7.85;;
43670;SDS011;29267;50.906;7.248;2023-05-10T04:20:19;13.77;;;8.00;;
43670;SDS011;29267;50.906;7.248;2023-05-10T04:22:44;13.73;;;8.70;;
43670;SDS011;29267;50.906;7.248;2023-05-10T04:25:10;11.80;;;8.23;;
43670;SDS011;29267;50.906;7.248;2023-05-10T04:27:36;16.90;;;9.57;;
43670;SDS011;29267;50.906;7.248;2023-05-10T04:30:02;16.42;;;9.25;;
43670;SDS011;29267;50.906;7.248;2023-05-10T04:32:28;11.20;;;7.32;;
43670;SDS011;29267;50.906;7.248;2023-05-10T04:34:54;14.23;;;8.50;;
43670;SDS011;29267;50.906;7.248;2023-05-10T04:37:19;15.40;;;9.20;;
43670;SDS011;29267;50.906;7.248;2023-05-10T04:39:46;15.77;;;9.40;;
43670;SDS011;29267;50.906;7.248;2023-05-10T04:42:11;18.73;;;10.38;;
43670;SDS011;29267;50.906;7.248;2023-05-10T04:44:39;18.08;;;10.88;;
43670;SDS011;29267;50.906;7.248;2023-05-10T04:47:05;18.77;;;9.90;;
43670;SDS011;29267;50.906;7.248;2023-05-10T04:49:31;18.27;;;10.55;;
43670;SDS011;29267;50.906;7.248;2023-05-10T04:51:57;18.27;;;11.15;;
43670;SDS011;29267;50.906;7.248;2023-05-10T04:54:22;19.35;;;11.85;;
43670;SDS011;29267;50.906;7.248;2023-05-10T04:56:48;16.33;;;10.90;;
43670;SDS011;29267;50.906;7.248;2023-05-10T04:59:14;18.92;;;10.27;;
43670;SDS011;29267;50.906;7.248;2023-05-10T05:01:39;16.27;;;10.70;;
43670;SDS011;29267;50.906;7.248;2023-05-10T05:04:05;13.93;;;8.20;;
43670;SDS011;29267;50.906;7.248;2023-05-10T05:06:31;14.63;;;9.15;;
43670;SDS011;29267;50.906;7.248;2023-05-10T05:08:57;12.52;;;7.90;;
43670;SDS011;29267;50.906;7.248;2023-05-10T05:11:22;10.15;;;6.13;;
43670;SDS011;29267;50.906;7.248;2023-05-10T05:13:48;12.32;;;7.35;;
43670;SDS011;29267;50.906;7.248;2023-05-10T05:16:14;12.60;;;7.97;;
43670;SDS011;29267;50.906;7.248;2023-05-10T05:18:39;17.42;;;10.07;;
43670;SDS011;29267;50.906;7.248;2023-05-10T05:21:14;16.80;;;10.07;;
43670;SDS011;29267;50.906;7.248;2023-05-10T05:23:41;19.15;;;11.52;;
43670;SDS011;29267;50.906;7.248;2023-05-10T05:26:06;21.33;;;12.60;;
43670;SDS011;29267;50.906;7.248;2023-05-10T05:28:32;25.42;;;14.00;;
43670;SDS011;29267;50.906;7.248;2023-05-10T05:31:01;21.48;;;11.45;;
43670;SDS011;29267;50.906;7.248;2023-05-10T05:33:32;23.20;;;12.07;;
43670;SDS011;29267;50.906;7.248;2023-05-10T05:36:00;22.50;;;12.63;;
43670;SDS011;29267;50.906;7.248;2023-05-10T05:38:26;25.85;;;12.95;;
43670;SDS011;29267;50.906;7.248;2023-05-10T05:40:51;23.95;;;13.25;;
43670;SDS011;29267;50.906;7.248;2023-05-10T05:43:17;20.80;;;14.15;;
43670;SDS011;29267;50.906;7.248;2023-05-10T05:45:43;23.17;;;12.32;;
43670;SDS011;29267;50.906;7.248;2023-05-10T05:48:08;28.90;;;12.32;;
43670;SDS011;29267;50.906;7.248;2023-05-10T05:50:34;28.48;;;12.10;;
43670;SDS011;29267;50.906;7.248;2023-05-10T05:52:59;24.77;;;12.93;;
43670;SDS011;29267;50.906;7.248;2023-05-10T05:55:25;22.02;;;12.80;;
43670;SDS011;29267;50.906;7.248;2023-05-10T05:57:51;18.48;;;10.90;;
43670;SDS011;29267;50.906;7.248;2023-05-10T06:00:17;21.38;;;11.57;;
43670;SDS011;29267;50.906;7.248;2023-05-10T06:02:42;21.15;;;11.45;;
43670;SDS011;29267;50.906;7.248;2023-05-10T06:05:08;22.30;;;11.82;;
43670;SDS011;29267;50.906;7.248;2023-05-10T06:07:34;22.17;;;11.60;;
43670;SDS011;29267;50.906;7.248;2023-05-10T06:09:59;21.08;;;11.15;;
43670;SDS011;29267;50.906;7.248;2023-05-10T06:12:25;20.80;;;11.25;;
43670;SDS011;29267;50.906;7.248;2023-05-10T06:14:50;19.98;;;10.98;;
43670;SDS011;29267;50.906;7.248;2023-05-10T06:17:16;21.45;;;11.48;;
43670;SDS011;29267;50.906;7.248;2023-05-10T06:19:42;19.95;;;11.80;;
43670;SDS011;29267;50.906;7.248;2023-05-10T06:22:07;29.80;;;12.38;;
43670;SDS011;29267;50.906;7.248;2023-05-10T06:24:33;20.90;;;11.55;;
43670;SDS011;29267;50.906;7.248;2023-05-10T06:26:58;23.55;;;11.27;;
43670;SDS011;29267;50.906;7.248;2023-05-10T06:29:25;24.33;;;11.50;;
43670;SDS011;29267;50.906;7.248;2023-05-10T06:31:51;22.15;;;11.80;;
43670;SDS011;29267;50.906;7.248;2023-05-10T06:34:16;18.63;;;11.75;;
43670;SDS011;29267;50.906;7.248;2023-05-10T06:36:42;21.95;;;12.85;;
43670;SDS011;29267;50.906;7.248;2023-05-10T06:39:07;22.20;;;12.73;;
43670;SDS011;29267;50.906;7.248;2023-05-10T06:41:33;21.08;;;11.55;;
43670;SDS011;29267;50.906;7.248;2023-05-10T06:43:59;19.95;;;11.57;;
43670;SDS011;29267;50.906;7.248;2023-05-10T06:46:24;21.25;;;12.35;;
43670;SDS011;29267;50.906;7.248;2023-05-10T06:48:50;18.67;;;12.20;;
43670;SDS011;29267;50.906;7.248;2023-05-10T06:51:15;18.80;;;11.40;;
43670;SDS011;29267;50.906;7.248;2023-05-10T06:53:41;19.90;;;10.95;;
43670;SDS011;29267;50.906;7.248;2023-05-10T06:56:06;21.23;;;11.43;;
43670;SDS011;29267;50.906;7.248;2023-05-10T06:58:32;21.00;;;10.40;;
43670;SDS011;29267;50.906;7.248;2023-05-10T07:01:02;20.75;;;10.90;;
43670;SDS011;29267;50.906;7.248;2023-05-10T07:03:28;23.15;;;10.45;;
43670;SDS011;29267;50.906;7.248;2023-05-10T07:05:53;19.00;;;10.18;;
43670;SDS011;29267;50.906;7.248;2023-05-10T07:08:24;19.38;;;12.05;;
43670;SDS011;29267;50.906;7.248;2023-05-10T07:10:50;22.02;;;11.27;;
43670;SDS011;29267;50.906;7.248;2023-05-10T07:13:15;24.70;;;11.70;;
43670;SDS011;29267;50.906;7.248;2023-05-10T07:15:41;26.92;;;14.60;;
43670;SDS011;29267;50.906;7.248;2023-05-10T07:18:07;26.67;;;12.55;;
43670;SDS011;29267;50.906;7.248;2023-05-10T07:20:33;23.17;;;12.50;;
43670;SDS011;29267;50.906;7.248;2023-05-10T07:22:58;27.73;;;12.80;;
43670;SDS011;29267;50.906;7.248;2023-05-10T07:25:24;23.85;;;13.18;;
43670;SDS011;29267;50.906;7.248;2023-05-10T07:27:50;26.35;;;12.35;;
43670;SDS011;29267;50.906;7.248;2023-05-10T07:30:15;29.90;;;14.10;;
43670;SDS011;29267;50.906;7.248;2023-05-10T07:32:41;26.83;;;14.05;;
43670;SDS011;29267;50.906;7.248;2023-05-10T07:35:07;27.50;;;14.98;;
43670;SDS011;29267;50.906;7.248;2023-05-10T07:37:33;26.63;;;14.98;;
43670;SDS011;29267;50.906;7.248;2023-05-10T07:39:59;20.23;;;12.75;;
43670;SDS011;29267;50.906;7.248;2023-05-10T07:42:24;26.45;;;14.70;;
43670;SDS011;29267;50.906;7.248;2023-05-10T07:44:50;27.52;;;14.05;;
43670;SDS011;29267;50.906;7.248;2023-05-10T07:47:16;20.85;;;11.68;;
43670;SDS011;29267;50.906;7.248;2023-05-10T07:49:41;24.65;;;13.27;;
43670;SDS011;29267;50.906;7.248;2023-05-10T07:52:07;20.05;;;13.10;;
43670;SDS011;29267;50.906;7.248;2023-05-10T07:54:32;22.25;;;11.63;;
43670;SDS011;29267;50.906;7.248;2023-05-10T07:56:59;23.80;;;12.57;;
43670;SDS011;29267;50.906;7.248;2023-05-10T07:59:25;23.38;;;13.02;;
43670;SDS011;29267;50.906;7.248;2023-05-10T08:01:50;19.63;;;12.23;;
43670;SDS011;29267;50.906;7.248;2023-05-10T08:04:16;20.77;;;11.10;;
43670;SDS011;29267;50.906;7.248;2023-05-10T08:06:42;20.13;;;13.13;;
43670;SDS011;29267;50.906;7.248;2023-05-10T08:09:08;21.70;;;12.27;;
43670;SDS011;29267;50.906;7.248;2023-05-10T08:11:34;22.88;;;13.13;;
43670;SDS011;29267;50.906;7.248;2023-05-10T08:14:00;25.60;;;13.05;;
43670;SDS011;29267;50.906;7.248;2023-05-10T08:16:25;25.65;;;12.80;;
43670;SDS011;29267;50.906;7.248;2023-05-10T08:18:51;18.55;;;10.75;;
43670;SDS011;29267;50.906;7.248;2023-05-10T08:21:16;21.75;;;11.00;;
43670;SDS011;29267;50.906;7.248;2023-05-10T08:23:42;18.58;;;10.80;;
43670;SDS011;29267;50.906;7.248;2023-05-10T08:26:08;17.02;;;10.57;;
43670;SDS011;29267;50.906;7.248;2023-05-10T08:28:34;17.73;;;11.07;;
43670;SDS011;29267;50.906;7.248;2023-05-10T08:31:00;18.38;;;11.52;;
43670;SDS011;29267;50.906;7.248;2023-05-10T08:33:25;22.52;;;11.38;;
43670;SDS011;29267;50.906;7.248;2023-05-10T08:35:51;20.75;;;10.40;;
43670;SDS011;29267;50.906;7.248;2023-05-10T08:38:17;32.67;;;19.02;;
43670;SDS011;29267;50.906;7.248;2023-05-10T08:40:43;18.05;;;11.82;;
43670;SDS011;29267;50.906;7.248;2023-05-10T08:43:11;19.52;;;9.88;;
43670;SDS011;29267;50.906;7.248;2023-05-10T08:45:40;19.02;;;10.07;;
43670;SDS011;29267;50.906;7.248;2023-05-10T08:48:07;17.13;;;10.10;;
43670;SDS011;29267;50.906;7.248;2023-05-10T08:50:38;17.30;;;9.50;;
43670;SDS011;29267;50.906;7.248;2023-05-10T08:53:05;14.73;;;8.65;;
43670;SDS011;29267;50.906;7.248;2023-05-10T08:55:38;15.90;;;9.07;;
43670;SDS011;29267;50.906;7.248;2023-05-10T08:58:07;16.40;;;8.55;;
43670;SDS011;29267;50.906;7.248;2023-05-10T09:00:33;15.07;;;9.50;;
43670;SDS011;29267;50.906;7.248;2023-05-10T09:02:59;23.27;;;8.98;;
43670;SDS011;29267;50.906;7.248;2023-05-10T09:05:25;17.70;;;9.13;;
43670;SDS011;29267;50.906;7.248;2023-05-10T09:07:51;17.35;;;9.55;;
43670;SDS011;29267;50.906;7.248;2023-05-10T09:10:16;20.13;;;10.73;;
43670;SDS011;29267;50.906;7.248;2023-05-10T09:12:43;19.38;;;9.38;;
43670;SDS011;29267;50.906;7.248;2023-05-10T09:15:10;16.10;;;8.63;;
43670;SDS011;29267;50.906;7.248;2023-05-10T09:17:36;11.82;;;7.53;;
43670;SDS011;29267;50.906;7.248;2023-05-10T09:20:04;13.05;;;8.13;;
43670;SDS011;29267;50.906;7.248;2023-05-10T09:22:30;10.70;;;6.35;;
43670;SDS011;29267;50.906;7.248;2023-05-10T09:27:39;12.05;;;6.60;;
43670;SDS011;29267;50.906;7.248;2023-05-10T09:30:06;11.70;;;7.57;;
43670;SDS011;29267;50.906;7.248;2023-05-10T09:35:11;9.73;;;4.80;;
43670;SDS011;29267;50.906;7.248;2023-05-10T09:37:42;8.70;;;5.25;;
43670;SDS011;29267;50.906;7.248;2023-05-10T09:40:16;11.82;;;7.95;;
43670;SDS011;29267;50.906;7.248;2023-05-10T09:42:56;5.35;;;3.15;;
43670;SDS011;29267;50.906;7.248;2023-05-10T09:45:24;5.47;;;3.25;;
43670;SDS011;29267;50.906;7.248;2023-05-10T09:47:51;4.38;;;3.10;;
43670;SDS011;29267;50.906;7.248;2023-05-10T09:50:16;4.30;;;3.00;;
43670;SDS011;29267;50.906;7.248;2023-05-10T09:52:51;4.53;;;3.08;;
43670;SDS011;29267;50.906;7.248;2023-05-10T09:55:23;5.72;;;3.67;;
43670;SDS011;29267;50.906;7.248;2023-05-10T09:57:58;6.03;;;4.13;;
43670;SDS011;29267;50.906;7.248;2023-05-10T10:00:25;5.97;;;3.67;;
43670;SDS011;29267;50.906;7.248;2023-05-10T10:02:55;5.18;;;3.88;;
43670;SDS011;29267;50.906;7.248;2023-05-10T10:05:30;6.47;;;4.10;;
43670;SDS011;29267;50.906;7.248;2023-05-10T10:08:01;6.00;;;4.15;;
43670;SDS011;29267;50.906;7.248;2023-05-10T10:10:29;5.97;;;4.55;;
43670;SDS011;29267;50.906;7.248;2023-05-10T10:12:56;7.32;;;4.53;;
43670;SDS011;29267;50.906;7.248;2023-05-10T10:15:23;7.55;;;4.45;;
43670;SDS011;29267;50.906;7.248;2023-05-10T10:17:49;8.57;;;5.35;;
43670;SDS011;29267;50.906;7.248;2023-05-10T10:20:16;6.78;;;4.80;;
43670;SDS011;29267;50.906;7.248;2023-05-10T10:22:43;8.85;;;5.78;;
43670;SDS011;29267;50.906;7.248;2023-05-10T10:25:10;6.90;;;4.60;;
43670;SDS011;29267;50.906;7.248;2023-05-10T10:27:43;8.63;;;4.65;;
43670;SDS011;29267;50.906;7.248;2023-05-10T10:36:00;23.27;;;11.77;;
43670;SDS011;29267;50.906;7.248;2023-05-10T10:41:11;10.77;;;6.93;;
43670;SDS011;29267;50.906;7.248;2023-05-10T10:47:04;11.60;;;7.25;;
43670;SDS011;29267;50.906;7.248;2023-05-10T10:49:49;11.23;;;7.25;;
43670;SDS011;29267;50.906;7.248;2023-05-10T10:54:52;16.85;;;7.38;;
43670;SDS011;29267;50.906;7.248;2023-05-10T10:57:22;13.60;;;7.63;;
43670;SDS011;29267;50.906;7.248;2023-05-10T10:59:48;15.85;;;7.35;;
43670;SDS011;29267;50.906;7.248;2023-05-10T11:04:59;14.77;;;7.78;;
43670;SDS011;29267;50.906;7.248;2023-05-10T11:07:25;20.20;;;8.93;;
43670;SDS011;29267;50.906;7.248;2023-05-10T11:09:51;18.08;;;8.45;;
43670;SDS011;29267;50.906;7.248;2023-05-10T11:12:17;13.88;;;7.78;;
43670;SDS011;29267;50.906;7.248;2023-05-10T11:14:42;14.43;;;8.15;;
43670;SDS011;29267;50.906;7.248;2023-05-10T11:17:26;13.88;;;7.43;;
43670;SDS011;29267;50.906;7.248;2023-05-10T11:20:09;13.13;;;7.47;;
43670;SDS011;29267;50.906;7.248;2023-05-10T11:22:51;13.77;;;7.85;;
43670;SDS011;29267;50.906;7.248;2023-05-10T11:25:17;14.88;;;7.32;;
43670;SDS011;29267;50.906;7.248;2023-05-10T11:27:43;16.75;;;6.93;;
43670;SDS011;29267;50.906;7.248;2023-05-10T11:30:10;11.30;;;6.85;;
43670;SDS011;29267;50.906;7.248;2023-05-10T11:32:37;9.90;;;6.57;;
43670;SDS011;29267;50.906;7.248;2023-05-10T11:35:10;11.13;;;6.53;;
43670;SDS011;29267;50.906;7.248;2023-05-10T11:37:37;15.77;;;6.72;;
43670;SDS011;29267;50.906;7.248;2023-05-10T11:40:08;11.80;;;6.15;;
43670;SDS011;29267;50.906;7.248;2023-05-10T11:42:36;9.45;;;6.43;;
43670;SDS011;29267;50.906;7.248;2023-05-10T11:45:02;12.88;;;7.22;;
43670;SDS011;29267;50.906;7.248;2023-05-10T11:47:28;13.73;;;7.70;;
43670;SDS011;29267;50.906;7.248;2023-05-10T11:49:54;10.10;;;6.05;;
43670;SDS011;29267;50.906;7.248;2023-05-10T11:52:20;12.20;;;6.85;;
43670;SDS011;29267;50.906;7.248;2023-05-10T11:54:50;12.02;;;6.40;;
43670;SDS011;29267;50.906;7.248;2023-05-10T11:57:18;9.40;;;6.00;;
43670;SDS011;29267;50.906;7.248;2023-05-10T11:59:45;8.52;;;5.57;;
43670;SDS011;29267;50.906;7.248;2023-05-10T12:02:17;10.48;;;5.95;;
43670;SDS011;29267;50.906;7.248;2023-05-10T12:04:43;10.02;;;5.05;;
43670;SDS011;29267;50.906;7.248;2023-05-10T12:07:09;9.93;;;5.85;;
43670;SDS011;29267;50.906;7.248;2023-05-10T12:09:35;15.32;;;4.82;;
43670;SDS011;29267;50.906;7.248;2023-05-10T12:12:01;7.93;;;4.00;;
43670;SDS011;29267;50.906;7.248;2023-05-10T12:14:27;8.98;;;4.75;;
43670;SDS011;29267;50.906;7.248;2023-05-10T12:16:53;7.50;;;4.78;;
43670;SDS011;29267;50.906;7.248;2023-05-10T12:19:22;5.93;;;3.63;;
43670;SDS011;29267;50.906;7.248;2023-05-10T12:21:48;6.00;;;3.60;;
43670;SDS011;29267;50.906;7.248;2023-05-10T12:24:14;5.15;;;2.95;;
43670;SDS011;29267;50.906;7.248;2023-05-10T12:26:42;5.43;;;2.85;;
43670;SDS011;29267;50.906;7.248;2023-05-10T12:29:16;4.32;;;3.22;;
43670;SDS011;29267;50.906;7.248;2023-05-10T12:34:22;4.22;;;2.65;;
43670;SDS011;29267;50.906;7.248;2023-05-10T12:36:58;4.03;;;2.42;;
43670;SDS011;29267;50.906;7.248;2023-05-10T12:39:24;3.90;;;2.22;;
43670;SDS011;29267;50.906;7.248;2023-05-10T12:41:50;4.38;;;2.53;;
43670;SDS011;29267;50.906;7.248;2023-05-10T12:44:16;3.50;;;2.50;;
43670;SDS011;29267;50.906;7.248;2023-05-10T12:46:43;2.95;;;2.10;;
43670;SDS011;29267;50.906;7.248;2023-05-10T12:49:08;3.97;;;2.58;;
43670;SDS011;29267;50.906;7.248;2023-05-10T12:51:34;4.07;;;2.70;;
43670;SDS011;29267;50.906;7.248;2023-05-10T12:54:00;5.55;;;2.58;;
43670;SDS011;29267;50.906;7.248;2023-05-10T12:56:25;3.60;;;2.70;;
43670;SDS011;29267;50.906;7.248;2023-05-10T12:58:51;4.93;;;2.50;;
43670;SDS011;29267;50.906;7.248;2023-05-10T13:01:17;3.40;;;1.92;;
43670;SDS011;29267;50.906;7.248;2023-05-10T13:03:42;3.33;;;2.17;;
43670;SDS011;29267;50.906;7.248;2023-05-10T13:06:08;2.92;;;1.88;;
43670;SDS011;29267;50.906;7.248;2023-05-10T13:08:34;2.78;;;1.55;;
43670;SDS011;29267;50.906;7.248;2023-05-10T13:11:00;3.55;;;1.58;;
43670;SDS011;29267;50.906;7.248;2023-05-10T13:13:27;4.05;;;1.48;;
43670;SDS011;29267;50.906;7.248;2023-05-10T13:15:53;2.55;;;1.73;;
43670;SDS011;29267;50.906;7.248;2023-05-10T13:18:19;3.25;;;1.52;;
43670;SDS011;29267;50.906;7.248;2023-05-10T13:20:45;1.70;;;1.38;;
43670;SDS011;29267;50.906;7.248;2023-05-10T13:23:10;4.50;;;1.67;;
43670;SDS011;29267;50.906;7.248;2023-05-10T13:25:36;1.52;;;1.20;;
43670;SDS011;29267;50.906;7.248;2023-05-10T13:28:02;2.30;;;1.40;;
43670;SDS011;29267;50.906;7.248;2023-05-10T13:30:28;1.73;;;1.20;;
43670;SDS011;29267;50.906;7.248;2023-05-10T13:32:54;4.78;;;1.58;;
43670;SDS011;29267;50.906;7.248;2023-05-10T13:35:19;1.60;;;1.40;;
43670;SDS011;29267;50.906;7.248;2023-05-10T13:37:45;2.90;;;1.40;;
43670;SDS011;29267;50.906;7.248;2023-05-10T13:40:11;1.77;;;1.33;;
43670;SDS011;29267;50.906;7.248;2023-05-10T13:42:36;3.47;;;1.40;;
43670;SDS011;29267;50.906;7.248;2023-05-10T13:45:02;2.92;;;1.63;;
43670;SDS011;29267;50.906;7.248;2023-05-10T13:47:28;2.35;;;1.60;;
43670;SDS011;29267;50.906;7.248;2023-05-10T13:49:54;2.47;;;1.40;;
43670;SDS011;29267;50.906;7.248;2023-05-10T13:52:19;5.90;;;1.63;;
43670;SDS011;29267;50.906;7.248;2023-05-10T13:54:45;4.43;;;1.38;;
43670;SDS011;29267;50.906;7.248;2023-05-10T13:57:11;2.47;;;1.40;;
43670;SDS011;29267;50.906;7.248;2023-05-10T13:59:38;2.47;;;1.73;;
43670;SDS011;29267;50.906;7.248;2023-05-10T14:02:04;1.70;;;1.10;;
43670;SDS011;29267;50.906;7.248;2023-05-10T14:04:30;2.08;;;1.40;;
43670;SDS011;29267;50.906;7.248;2023-05-10T14:06:56;1.70;;;1.55;;
43670;SDS011;29267;50.906;7.248;2023-05-10T14:09:22;4.32;;;1.38;;
43670;SDS011;29267;50.906;7.248;2023-05-10T14:11:47;3.33;;;1.58;;
43670;SDS011;29267;50.906;7.248;2023-05-10T14:14:13;2.30;;;1.45;;
43670;SDS011;29267;50.906;7.248;2023-05-10T14:16:43;1.30;;;1.17;;
43670;SDS011;29267;50.906;7.248;2023-05-10T14:19:09;1.83;;;1.35;;
43670;SDS011;29267;50.906;7.248;2023-05-10T14:21:35;1.48;;;1.23;;
43670;SDS011;29267;50.906;7.248;2023-05-10T14:24:01;1.92;;;1.38;;
43670;SDS011;29267;50.906;7.248;2023-05-10T14:26:26;1.45;;;1.35;;
43670;SDS011;29267;50.906;7.248;2023-05-10T14:28:52;1.85;;;1.45;;
43670;SDS011;29267;50.906;7.248;2023-05-10T14:31:18;3.80;;;1.25;;
43670;SDS011;29267;50.906;7.248;2023-05-10T14:33:45;1.42;;;1.23;;
43670;SDS011;29267;50.906;7.248;2023-05-10T14:36:11;5.03;;;2.22;;
43670;SDS011;29267;50.906;7.248;2023-05-10T14:38:37;11.40;;;3.15;;
43670;SDS011;29267;50.906;7.248;2023-05-10T14:41:03;3.75;;;1.50;;
43670;SDS011;29267;50.906;7.248;2023-05-10T14:43:28;5.07;;;1.60;;
43670;SDS011;29267;50.906;7.248;2023-05-10T14:45:55;2.03;;;1.75;;
43670;SDS011;29267;50.906;7.248;2023-05-10T14:48:20;1.60;;;1.00;;
43670;SDS011;29267;50.906;7.248;2023-05-10T14:50:46;1.75;;;1.20;;
43670;SDS011;29267;50.906;7.248;2023-05-10T14:53:12;2.65;;;1.25;;
43670;SDS011;29267;50.906;7.248;2023-05-10T14:55:37;2.83;;;1.00;;
43670;SDS011;29267;50.906;7.248;2023-05-10T14:58:04;2.70;;;1.08;;
43670;SDS011;29267;50.906;7.248;2023-05-10T15:00:29;2.40;;;1.05;;
43670;SDS011;29267;50.906;7.248;2023-05-10T15:02:56;9.70;;;1.15;;
43670;SDS011;29267;50.906;7.248;2023-05-10T15:05:22;1.70;;;1.00;;
43670;SDS011;29267;50.906;7.248;2023-05-10T15:07:48;2.60;;;1.75;;
43670;SDS011;29267;50.906;7.248;2023-05-10T15:10:13;3.88;;;2.25;;
43670;SDS011;29267;50.906;7.248;2023-05-10T15:12:39;3.05;;;1.77;;
43670;SDS011;29267;50.906;7.248;2023-05-10T15:15:05;2.10;;;1.38;;
43670;SDS011;29267;50.906;7.248;2023-05-10T15:17:31;8.43;;;4.13;;